메인 페이지
METAR-TAF:

METAR-TAF

공항 :

구이린 량장 국제공항

구이린, 중국

위도: 25-20N, 경도: 110-18E, 고도: 166m

현재 날씨관측

예보는 44분 전, 17:00시(UTC)에 발표되었습니다.
북북동8kt
온도 23°C
습도 100%
기압 1009 hPa
시정: 6000m
고도 500ft 상공 구름 조금
고도 900ft 상공 구름 보통
고도 3600ft 상공 구름 조금, 적란운.
고도 3600ft 상공 구름 많음
소나기

METAR: ZGKL 311700Z 03004MPS 6000 SHRA FEW005 SCT009 FEW036CB BKN036 23/23 Q1009 RETS BECMG FM1800 -RA

시각: 01:44 (17:44 UTC)

예보

예보는 2 시간 21분 전, 15:23시(UTC)에 발표되었습니다.
예보 대상 시간: 31일 18시부터 01일 18시까지 (UTC)
6kt
시정: 5000m
고도 3000ft 상공 구름 보통
박무
일시적
31일 20시부터 31일 24시까지 (UTC)
고도 3600ft 상공 구름 보통, 적란운.
일시적
01일 06시부터 01일 12시까지 (UTC)
고도 3600ft 상공 구름 보통, 적란운.
일시적
01일 15시부터 01일 18시까지 (UTC)
고도 1000ft 상공 구름 조금
고도 3000ft 상공 구름 보통, 적란운.
고도 5000ft 상공 구름 많음
뇌우, 약한비

TAF: ZGKL 311523Z 3118/0118 18003MPS 5000 BR SCT030 TX30/0107Z TN23/3122Z TEMPO 3120/3124 SCT036CB TEMPO 0106/0112 SCT036CB TEMPO 0115/0118 -TSRA FEW010 SCT030CB BKN050

4,000개 이상의 공항 관측 자료 및 예보 (METAR 및 TAF 보고).

지도상에서 검색 가능한 기상관측소가 노란 점과 빨간 점으로 표시되어 있습니다.

기상관측소 명을 보려면 표시 위로 마우스를 이동하세요.

날씨 관측과 예보를 보려면 클릭하세요.

지도 변경 : 확대하려면 엑스 표시가 있는 녹색 버튼, 축소하려면 빼기 표시가 있는 녹색 버튼, 다음 페이지의 지도를 보려면 녹색 화살표를 클릭하세요.


METAR-TAF: